sensor_id;sensor_type;location;lat;lon;timestamp;temperature;humidity
33368;DHT22;19724;51.114;13.906;2023-02-13T00:01:57;5.50;99.90
33368;DHT22;19724;51.114;13.906;2023-02-13T00:04:22;5.50;99.90
33368;DHT22;19724;51.114;13.906;2023-02-13T00:06:48;5.50;99.90
33368;DHT22;19724;51.114;13.906;2023-02-13T00:09:14;5.50;99.90
33368;DHT22;19724;51.114;13.906;2023-02-13T00:11:39;5.50;99.90
33368;DHT22;19724;51.114;13.906;2023-02-13T00:14:05;5.50;99.90
33368;DHT22;19724;51.114;13.906;2023-02-13T00:16:30;5.60;99.90
33368;DHT22;19724;51.114;13.906;2023-02-13T00:18:56;5.60;99.90
33368;DHT22;19724;51.114;13.906;2023-02-13T00:21:21;5.60;99.90
33368;DHT22;19724;51.114;13.906;2023-02-13T00:23:47;5.50;99.90
33368;DHT22;19724;51.114;13.906;2023-02-13T00:26:14;5.50;99.90
33368;DHT22;19724;51.114;13.906;2023-02-13T00:28:40;5.60;99.90
33368;DHT22;19724;51.114;13.906;2023-02-13T00:31:08;5.60;99.90
33368;DHT22;19724;51.114;13.906;2023-02-13T00:33:34;5.60;99.90
33368;DHT22;19724;51.114;13.906;2023-02-13T00:36:11;5.70;99.90
33368;DHT22;19724;51.114;13.906;2023-02-13T00:38:38;5.70;99.90
33368;DHT22;19724;51.114;13.906;2023-02-13T00:41:04;5.70;99.90
33368;DHT22;19724;51.114;13.906;2023-02-13T00:43:30;5.70;99.90
33368;DHT22;19724;51.114;13.906;2023-02-13T00:45:56;5.90;99.90
33368;DHT22;19724;51.114;13.906;2023-02-13T00:48:26;5.70;99.90
33368;DHT22;19724;51.114;13.906;2023-02-13T00:50:52;5.80;99.90
33368;DHT22;19724;51.114;13.906;2023-02-13T00:53:18;5.90;99.90
33368;DHT22;19724;51.114;13.906;2023-02-13T00:55:44;5.90;99.90
33368;DHT22;19724;51.114;13.906;2023-02-13T00:58:09;5.80;99.90
33368;DHT22;19724;51.114;13.906;2023-02-13T01:00:35;5.80;99.90
33368;DHT22;19724;51.114;13.906;2023-02-13T01:03:01;5.90;99.90
33368;DHT22;19724;51.114;13.906;2023-02-13T01:05:26;6.00;99.90
33368;DHT22;19724;51.114;13.906;2023-02-13T01:07:53;5.90;99.90
33368;DHT22;19724;51.114;13.906;2023-02-13T01:10:19;5.90;99.90
33368;DHT22;19724;51.114;13.906;2023-02-13T01:12:44;6.00;99.90
33368;DHT22;19724;51.114;13.906;2023-02-13T01:15:10;6.00;99.90
33368;DHT22;19724;51.114;13.906;2023-02-13T01:17:35;6.00;99.90
33368;DHT22;19724;51.114;13.906;2023-02-13T01:20:05;6.00;99.90
33368;DHT22;19724;51.114;13.906;2023-02-13T01:22:30;6.00;99.90
33368;DHT22;19724;51.114;13.906;2023-02-13T01:24:56;6.00;99.90
33368;DHT22;19724;51.114;13.906;2023-02-13T01:27:21;6.00;99.90
33368;DHT22;19724;51.114;13.906;2023-02-13T01:29:47;6.00;99.90
33368;DHT22;19724;51.114;13.906;2023-02-13T01:32:13;6.10;99.90
33368;DHT22;19724;51.114;13.906;2023-02-13T01:34:38;6.10;99.90
33368;DHT22;19724;51.114;13.906;2023-02-13T01:37:04;6.10;99.90
33368;DHT22;19724;51.114;13.906;2023-02-13T01:39:29;6.10;99.90
33368;DHT22;19724;51.114;13.906;2023-02-13T01:41:55;6.10;99.90
33368;DHT22;19724;51.114;13.906;2023-02-13T01:44:43;6.10;99.90
33368;DHT22;19724;51.114;13.906;2023-02-13T01:47:11;6.10;99.90
33368;DHT22;19724;51.114;13.906;2023-02-13T01:49:38;6.10;99.90
33368;DHT22;19724;51.114;13.906;2023-02-13T01:52:05;6.10;99.90
33368;DHT22;19724;51.114;13.906;2023-02-13T01:54:32;6.10;99.90
33368;DHT22;19724;51.114;13.906;2023-02-13T01:57:10;6.20;99.90
33368;DHT22;19724;51.114;13.906;2023-02-13T01:59:47;6.20;99.90
33368;DHT22;19724;51.114;13.906;2023-02-13T02:02:14;6.20;99.90
33368;DHT22;19724;51.114;13.906;2023-02-13T02:04:40;6.20;99.90
33368;DHT22;19724;51.114;13.906;2023-02-13T02:07:14;6.20;99.90
33368;DHT22;19724;51.114;13.906;2023-02-13T02:09:42;6.20;99.90
33368;DHT22;19724;51.114;13.906;2023-02-13T02:12:25;6.20;99.90
33368;DHT22;19724;51.114;13.906;2023-02-13T02:14:53;6.20;99.90
33368;DHT22;19724;51.114;13.906;2023-02-13T02:17:21;6.20;99.90
33368;DHT22;19724;51.114;13.906;2023-02-13T02:20:07;6.10;99.90
33368;DHT22;19724;51.114;13.906;2023-02-13T02:22:57;6.30;99.90
33368;DHT22;19724;51.114;13.906;2023-02-13T02:25:46;6.30;99.90
33368;DHT22;19724;51.114;13.906;2023-02-13T02:37:45;6.20;99.90
33368;DHT22;19724;51.114;13.906;2023-02-13T02:40:42;6.20;99.90
33368;DHT22;19724;51.114;13.906;2023-02-13T02:45:55;6.20;99.90
33368;DHT22;19724;51.114;13.906;2023-02-13T02:48:32;6.20;99.90
33368;DHT22;19724;51.114;13.906;2023-02-13T02:51:32;6.10;99.90
33368;DHT22;19724;51.114;13.906;2023-02-13T02:54:09;6.10;99.90
33368;DHT22;19724;51.114;13.906;2023-02-13T02:57:02;6.10;99.90
33368;DHT22;19724;51.114;13.906;2023-02-13T02:59:30;6.10;99.90
33368;DHT22;19724;51.114;13.906;2023-02-13T03:02:17;6.10;99.90
33368;DHT22;19724;51.114;13.906;2023-02-13T03:05:03;6.10;99.90
33368;DHT22;19724;51.114;13.906;2023-02-13T03:07:48;6.10;99.90
33368;DHT22;19724;51.114;13.906;2023-02-13T03:10:28;6.10;99.90
33368;DHT22;19724;51.114;13.906;2023-02-13T03:13:17;6.10;99.90
33368;DHT22;19724;51.114;13.906;2023-02-13T03:15:56;6.10;99.90
33368;DHT22;19724;51.114;13.906;2023-02-13T03:18:49;6.10;99.90
33368;DHT22;19724;51.114;13.906;2023-02-13T03:21:58;6.10;99.90
33368;DHT22;19724;51.114;13.906;2023-02-13T03:24:52;6.10;99.90
33368;DHT22;19724;51.114;13.906;2023-02-13T03:30:52;6.10;99.90
33368;DHT22;19724;51.114;13.906;2023-02-13T03:33:40;6.10;99.90
33368;DHT22;19724;51.114;13.906;2023-02-13T03:36:28;6.10;99.90
33368;DHT22;19724;51.114;13.906;2023-02-13T03:39:17;6.10;99.90
33368;DHT22;19724;51.114;13.906;2023-02-13T03:41:56;6.00;99.90
33368;DHT22;19724;51.114;13.906;2023-02-13T03:44:29;6.10;99.90
33368;DHT22;19724;51.114;13.906;2023-02-13T03:46:58;6.20;99.90
33368;DHT22;19724;51.114;13.906;2023-02-13T03:49:30;6.10;99.90
33368;DHT22;19724;51.114;13.906;2023-02-13T03:52:31;6.10;99.90
33368;DHT22;19724;51.114;13.906;2023-02-13T03:55:15;6.10;99.90
33368;DHT22;19724;51.114;13.906;2023-02-13T03:58:07;6.10;99.90
33368;DHT22;19724;51.114;13.906;2023-02-13T04:00:57;6.10;99.90
33368;DHT22;19724;51.114;13.906;2023-02-13T04:03:32;6.00;99.90
33368;DHT22;19724;51.114;13.906;2023-02-13T04:06:07;6.00;99.90
33368;DHT22;19724;51.114;13.906;2023-02-13T04:08:33;6.10;99.90
33368;DHT22;19724;51.114;13.906;2023-02-13T04:11:24;6.10;99.90
33368;DHT22;19724;51.114;13.906;2023-02-13T04:14:00;6.00;99.90
33368;DHT22;19724;51.114;13.906;2023-02-13T04:16:34;6.00;99.90
33368;DHT22;19724;51.114;13.906;2023-02-13T04:19:01;6.10;99.90
33368;DHT22;19724;51.114;13.906;2023-02-13T04:21:27;6.00;99.90
33368;DHT22;19724;51.114;13.906;2023-02-13T04:23:56;6.10;99.90
33368;DHT22;19724;51.114;13.906;2023-02-13T04:26:22;6.00;99.90
33368;DHT22;19724;51.114;13.906;2023-02-13T04:28:48;6.10;99.90
33368;DHT22;19724;51.114;13.906;2023-02-13T04:31:13;6.10;99.90
33368;DHT22;19724;51.114;13.906;2023-02-13T04:33:39;6.10;99.90
33368;DHT22;19724;51.114;13.906;2023-02-13T04:36:05;6.10;99.90
33368;DHT22;19724;51.114;13.906;2023-02-13T04:38:30;6.00;99.90
33368;DHT22;19724;51.114;13.906;2023-02-13T04:40:56;6.00;99.90
33368;DHT22;19724;51.114;13.906;2023-02-13T04:43:21;6.00;99.90
33368;DHT22;19724;51.114;13.906;2023-02-13T04:45:50;6.00;99.90
33368;DHT22;19724;51.114;13.906;2023-02-13T04:48:16;6.00;99.90
33368;DHT22;19724;51.114;13.906;2023-02-13T04:50:41;6.00;99.90
33368;DHT22;19724;51.114;13.906;2023-02-13T04:53:07;6.00;99.90
33368;DHT22;19724;51.114;13.906;2023-02-13T04:55:33;6.00;99.90
33368;DHT22;19724;51.114;13.906;2023-02-13T04:57:58;6.00;99.90
33368;DHT22;19724;51.114;13.906;2023-02-13T05:00:26;6.00;99.90
33368;DHT22;19724;51.114;13.906;2023-02-13T05:02:52;6.00;99.90
33368;DHT22;19724;51.114;13.906;2023-02-13T05:05:18;6.00;99.90
33368;DHT22;19724;51.114;13.906;2023-02-13T05:07:44;6.00;99.90
33368;DHT22;19724;51.114;13.906;2023-02-13T05:10:11;6.00;99.90
33368;DHT22;19724;51.114;13.906;2023-02-13T05:12:37;6.00;99.90
33368;DHT22;19724;51.114;13.906;2023-02-13T05:15:03;6.00;99.90
33368;DHT22;19724;51.114;13.906;2023-02-13T05:17:29;6.00;99.90
33368;DHT22;19724;51.114;13.906;2023-02-13T05:19:54;6.00;99.90
33368;DHT22;19724;51.114;13.906;2023-02-13T05:22:20;6.00;99.90
33368;DHT22;19724;51.114;13.906;2023-02-13T05:25:04;6.00;99.90
33368;DHT22;19724;51.114;13.906;2023-02-13T05:27:30;6.00;99.90
33368;DHT22;19724;51.114;13.906;2023-02-13T05:29:55;6.00;99.90
33368;DHT22;19724;51.114;13.906;2023-02-13T05:32:21;6.00;99.90
33368;DHT22;19724;51.114;13.906;2023-02-13T05:34:46;6.00;99.90
33368;DHT22;19724;51.114;13.906;2023-02-13T05:37:12;5.90;99.90
33368;DHT22;19724;51.114;13.906;2023-02-13T05:39:37;6.00;99.90
33368;DHT22;19724;51.114;13.906;2023-02-13T05:42:03;5.90;99.90
33368;DHT22;19724;51.114;13.906;2023-02-13T05:44:31;6.00;99.90
33368;DHT22;19724;51.114;13.906;2023-02-13T05:46:57;6.00;99.90
33368;DHT22;19724;51.114;13.906;2023-02-13T05:49:22;5.90;99.90
33368;DHT22;19724;51.114;13.906;2023-02-13T05:51:48;5.90;99.90
33368;DHT22;19724;51.114;13.906;2023-02-13T05:54:16;5.90;99.90
33368;DHT22;19724;51.114;13.906;2023-02-13T05:56:42;5.90;99.90
33368;DHT22;19724;51.114;13.906;2023-02-13T05:59:07;5.80;99.90
33368;DHT22;19724;51.114;13.906;2023-02-13T06:01:33;5.90;99.90
33368;DHT22;19724;51.114;13.906;2023-02-13T06:03:58;5.90;99.90
33368;DHT22;19724;51.114;13.906;2023-02-13T06:06:24;5.90;99.90
33368;DHT22;19724;51.114;13.906;2023-02-13T06:08:50;5.90;99.90
33368;DHT22;19724;51.114;13.906;2023-02-13T06:11:15;5.90;99.90
33368;DHT22;19724;51.114;13.906;2023-02-13T06:13:41;5.90;99.90
33368;DHT22;19724;51.114;13.906;2023-02-13T06:16:08;5.90;99.90
33368;DHT22;19724;51.114;13.906;2023-02-13T06:18:34;5.90;99.90
33368;DHT22;19724;51.114;13.906;2023-02-13T06:20:59;5.90;99.90
33368;DHT22;19724;51.114;13.906;2023-02-13T06:23:25;5.90;99.90
33368;DHT22;19724;51.114;13.906;2023-02-13T06:25:50;5.90;99.90
33368;DHT22;19724;51.114;13.906;2023-02-13T06:28:16;5.90;99.90
33368;DHT22;19724;51.114;13.906;2023-02-13T06:30:41;5.90;99.90
33368;DHT22;19724;51.114;13.906;2023-02-13T06:33:07;5.90;99.90
33368;DHT22;19724;51.114;13.906;2023-02-13T06:35:32;5.90;99.90
33368;DHT22;19724;51.114;13.906;2023-02-13T06:37:58;5.90;99.90
33368;DHT22;19724;51.114;13.906;2023-02-13T06:40:23;5.90;99.90
33368;DHT22;19724;51.114;13.906;2023-02-13T06:42:48;5.80;99.90
33368;DHT22;19724;51.114;13.906;2023-02-13T06:45:14;5.90;99.90
33368;DHT22;19724;51.114;13.906;2023-02-13T06:47:41;5.90;99.90
33368;DHT22;19724;51.114;13.906;2023-02-13T06:50:07;5.90;99.90
33368;DHT22;19724;51.114;13.906;2023-02-13T06:52:33;5.80;99.90
33368;DHT22;19724;51.114;13.906;2023-02-13T06:55:00;5.90;99.90
33368;DHT22;19724;51.114;13.906;2023-02-13T06:57:26;5.90;99.90
33368;DHT22;19724;51.114;13.906;2023-02-13T06:59:52;5.90;99.90
33368;DHT22;19724;51.114;13.906;2023-02-13T07:02:18;5.90;99.90
33368;DHT22;19724;51.114;13.906;2023-02-13T07:04:46;5.90;99.90
33368;DHT22;19724;51.114;13.906;2023-02-13T07:07:12;5.90;99.90
33368;DHT22;19724;51.114;13.906;2023-02-13T07:09:37;5.90;99.90
33368;DHT22;19724;51.114;13.906;2023-02-13T07:12:04;5.90;99.90
33368;DHT22;19724;51.114;13.906;2023-02-13T07:14:30;5.90;99.90
33368;DHT22;19724;51.114;13.906;2023-02-13T07:16:56;5.90;99.90
33368;DHT22;19724;51.114;13.906;2023-02-13T07:19:22;5.90;99.90
33368;DHT22;19724;51.114;13.906;2023-02-13T07:21:47;5.90;99.90
33368;DHT22;19724;51.114;13.906;2023-02-13T07:24:13;5.80;99.90
33368;DHT22;19724;51.114;13.906;2023-02-13T07:26:46;5.90;99.90
33368;DHT22;19724;51.114;13.906;2023-02-13T07:29:14;5.90;99.90
33368;DHT22;19724;51.114;13.906;2023-02-13T07:31:42;5.90;99.90
33368;DHT22;19724;51.114;13.906;2023-02-13T07:34:07;5.90;99.90
33368;DHT22;19724;51.114;13.906;2023-02-13T07:36:33;5.90;99.90
33368;DHT22;19724;51.114;13.906;2023-02-13T07:38:59;5.90;99.90
33368;DHT22;19724;51.114;13.906;2023-02-13T07:41:24;5.90;99.90
33368;DHT22;19724;51.114;13.906;2023-02-13T07:43:51;5.90;99.90
33368;DHT22;19724;51.114;13.906;2023-02-13T07:46:17;5.90;99.90
33368;DHT22;19724;51.114;13.906;2023-02-13T07:48:43;5.90;99.90
33368;DHT22;19724;51.114;13.906;2023-02-13T07:51:08;5.90;99.90
33368;DHT22;19724;51.114;13.906;2023-02-13T07:53:36;5.90;99.90
33368;DHT22;19724;51.114;13.906;2023-02-13T07:56:08;5.90;99.90
33368;DHT22;19724;51.114;13.906;2023-02-13T07:58:35;5.90;99.90
33368;DHT22;19724;51.114;13.906;2023-02-13T08:01:15;5.90;99.90
33368;DHT22;19724;51.114;13.906;2023-02-13T08:03:41;5.90;99.90
33368;DHT22;19724;51.114;13.906;2023-02-13T08:06:07;5.90;99.90
33368;DHT22;19724;51.114;13.906;2023-02-13T08:08:33;5.90;99.90
33368;DHT22;19724;51.114;13.906;2023-02-13T08:11:07;5.90;99.90
33368;DHT22;19724;51.114;13.906;2023-02-13T08:13:55;5.90;99.90
33368;DHT22;19724;51.114;13.906;2023-02-13T08:16:21;5.90;99.90
33368;DHT22;19724;51.114;13.906;2023-02-13T08:18:46;5.90;99.90
33368;DHT22;19724;51.114;13.906;2023-02-13T08:21:12;5.90;99.90
33368;DHT22;19724;51.114;13.906;2023-02-13T08:23:39;5.90;99.90
33368;DHT22;19724;51.114;13.906;2023-02-13T08:26:05;5.90;99.90
33368;DHT22;19724;51.114;13.906;2023-02-13T08:28:30;5.90;99.90
33368;DHT22;19724;51.114;13.906;2023-02-13T08:30:55;5.90;99.90
33368;DHT22;19724;51.114;13.906;2023-02-13T08:33:21;5.90;99.90
33368;DHT22;19724;51.114;13.906;2023-02-13T08:35:46;5.90;99.90
33368;DHT22;19724;51.114;13.906;2023-02-13T08:38:12;5.90;99.90
33368;DHT22;19724;51.114;13.906;2023-02-13T08:40:38;5.90;99.90
33368;DHT22;19724;51.114;13.906;2023-02-13T08:43:04;5.90;99.90
33368;DHT22;19724;51.114;13.906;2023-02-13T08:45:31;5.90;99.90
33368;DHT22;19724;51.114;13.906;2023-02-13T08:47:58;5.90;99.90
33368;DHT22;19724;51.114;13.906;2023-02-13T08:50:24;5.90;99.90
33368;DHT22;19724;51.114;13.906;2023-02-13T08:52:49;5.90;99.90
33368;DHT22;19724;51.114;13.906;2023-02-13T08:55:15;5.90;99.90
33368;DHT22;19724;51.114;13.906;2023-02-13T08:57:40;5.90;99.90
33368;DHT22;19724;51.114;13.906;2023-02-13T09:00:06;5.90;99.90
33368;DHT22;19724;51.114;13.906;2023-02-13T09:02:32;5.90;99.90
33368;DHT22;19724;51.114;13.906;2023-02-13T09:04:58;5.90;99.90
33368;DHT22;19724;51.114;13.906;2023-02-13T09:07:23;5.90;99.90
33368;DHT22;19724;51.114;13.906;2023-02-13T09:09:49;5.90;99.90
33368;DHT22;19724;51.114;13.906;2023-02-13T09:12:15;5.90;99.90
33368;DHT22;19724;51.114;13.906;2023-02-13T09:14:40;5.80;99.90
33368;DHT22;19724;51.114;13.906;2023-02-13T09:17:06;5.90;99.90
33368;DHT22;19724;51.114;13.906;2023-02-13T09:19:31;5.90;99.90
33368;DHT22;19724;51.114;13.906;2023-02-13T09:21:57;5.80;99.90
33368;DHT22;19724;51.114;13.906;2023-02-13T09:24:23;5.80;99.90
33368;DHT22;19724;51.114;13.906;2023-02-13T09:26:49;5.80;99.90
33368;DHT22;19724;51.114;13.906;2023-02-13T09:29:14;5.80;99.90
33368;DHT22;19724;51.114;13.906;2023-02-13T09:31:40;5.80;99.90
33368;DHT22;19724;51.114;13.906;2023-02-13T09:34:05;5.80;99.90
33368;DHT22;19724;51.114;13.906;2023-02-13T09:36:31;5.80;99.90
33368;DHT22;19724;51.114;13.906;2023-02-13T09:38:57;5.80;99.90
33368;DHT22;19724;51.114;13.906;2023-02-13T09:41:39;5.90;99.90
33368;DHT22;19724;51.114;13.906;2023-02-13T09:44:28;5.90;99.90
33368;DHT22;19724;51.114;13.906;2023-02-13T09:47:16;5.90;99.90
33368;DHT22;19724;51.114;13.906;2023-02-13T09:49:49;5.90;99.90
33368;DHT22;19724;51.114;13.906;2023-02-13T09:52:17;6.00;99.90
33368;DHT22;19724;51.114;13.906;2023-02-13T09:54:42;6.00;99.90
33368;DHT22;19724;51.114;13.906;2023-02-13T10:00:29;6.10;99.90
33368;DHT22;19724;51.114;13.906;2023-02-13T10:05:36;6.10;99.90
33368;DHT22;19724;51.114;13.906;2023-02-13T10:11:18;6.30;99.90
33368;DHT22;19724;51.114;13.906;2023-02-13T10:21:43;6.40;99.90
33368;DHT22;19724;51.114;13.906;2023-02-13T10:24:25;6.50;99.90
33368;DHT22;19724;51.114;13.906;2023-02-13T10:26:53;6.50;99.90
33368;DHT22;19724;51.114;13.906;2023-02-13T10:29:25;6.60;99.90
33368;DHT22;19724;51.114;13.906;2023-02-13T10:32:17;6.60;99.90
33368;DHT22;19724;51.114;13.906;2023-02-13T10:34:45;6.70;99.90
33368;DHT22;19724;51.114;13.906;2023-02-13T10:37:17;6.70;99.90
33368;DHT22;19724;51.114;13.906;2023-02-13T10:39:45;6.80;99.90
33368;DHT22;19724;51.114;13.906;2023-02-13T10:42:28;6.80;99.90
33368;DHT22;19724;51.114;13.906;2023-02-13T10:50:44;7.10;99.90
33368;DHT22;19724;51.114;13.906;2023-02-13T10:53:37;7.10;99.90
33368;DHT22;19724;51.114;13.906;2023-02-13T10:58:49;7.20;99.90
33368;DHT22;19724;51.114;13.906;2023-02-13T11:01:31;7.20;99.90
33368;DHT22;19724;51.114;13.906;2023-02-13T11:04:11;7.20;99.90
33368;DHT22;19724;51.114;13.906;2023-02-13T11:06:42;7.20;99.90
33368;DHT22;19724;51.114;13.906;2023-02-13T11:09:10;7.20;99.90
33368;DHT22;19724;51.114;13.906;2023-02-13T11:11:40;7.20;99.90
33368;DHT22;19724;51.114;13.906;2023-02-13T11:14:09;7.20;99.90
33368;DHT22;19724;51.114;13.906;2023-02-13T11:19:36;7.30;99.90
33368;DHT22;19724;51.114;13.906;2023-02-13T11:22:10;7.30;99.90
33368;DHT22;19724;51.114;13.906;2023-02-13T11:24:39;7.30;99.90
33368;DHT22;19724;51.114;13.906;2023-02-13T11:27:07;7.30;99.90
33368;DHT22;19724;51.114;13.906;2023-02-13T11:29:51;7.30;99.90
33368;DHT22;19724;51.114;13.906;2023-02-13T11:32:20;7.30;99.90
33368;DHT22;19724;51.114;13.906;2023-02-13T11:34:47;7.30;99.90
33368;DHT22;19724;51.114;13.906;2023-02-13T11:39:48;7.30;99.90
33368;DHT22;19724;51.114;13.906;2023-02-13T11:42:36;7.30;99.90
33368;DHT22;19724;51.114;13.906;2023-02-13T11:45:21;7.20;99.90
33368;DHT22;19724;51.114;13.906;2023-02-13T11:47:47;7.20;99.90
33368;DHT22;19724;51.114;13.906;2023-02-13T11:50:32;7.20;99.90
33368;DHT22;19724;51.114;13.906;2023-02-13T11:53:19;7.20;99.90
33368;DHT22;19724;51.114;13.906;2023-02-13T11:56:01;7.20;99.90
33368;DHT22;19724;51.114;13.906;2023-02-13T11:58:28;7.20;99.90
33368;DHT22;19724;51.114;13.906;2023-02-13T12:04:00;7.20;99.90
33368;DHT22;19724;51.114;13.906;2023-02-13T12:06:25;7.20;99.90
33368;DHT22;19724;51.114;13.906;2023-02-13T12:08:51;7.20;99.90
33368;DHT22;19724;51.114;13.906;2023-02-13T12:11:27;7.20;99.90
33368;DHT22;19724;51.114;13.906;2023-02-13T12:13:59;7.20;99.90
33368;DHT22;19724;51.114;13.906;2023-02-13T12:16:37;7.20;99.90
33368;DHT22;19724;51.114;13.906;2023-02-13T12:19:06;7.30;99.90
33368;DHT22;19724;51.114;13.906;2023-02-13T12:21:58;7.30;99.90
33368;DHT22;19724;51.114;13.906;2023-02-13T12:33:24;7.30;99.90
33368;DHT22;19724;51.114;13.906;2023-02-13T12:50:17;7.30;99.90
33368;DHT22;19724;51.114;13.906;2023-02-13T12:53:10;7.30;99.90
33368;DHT22;19724;51.114;13.906;2023-02-13T12:55:51;7.30;99.90
33368;DHT22;19724;51.114;13.906;2023-02-13T12:58:48;7.30;99.90
33368;DHT22;19724;51.114;13.906;2023-02-13T13:01:53;7.30;99.90
33368;DHT22;19724;51.114;13.906;2023-02-13T13:04:37;7.40;99.90
33368;DHT22;19724;51.114;13.906;2023-02-13T13:13:13;7.40;99.90
33368;DHT22;19724;51.114;13.906;2023-02-13T13:15:58;7.40;99.90
33368;DHT22;19724;51.114;13.906;2023-02-13T13:21:45;7.40;99.90
33368;DHT22;19724;51.114;13.906;2023-02-13T13:24:31;7.50;99.90
33368;DHT22;19724;51.114;13.906;2023-02-13T13:26:59;7.50;99.90
33368;DHT22;19724;51.114;13.906;2023-02-13T13:29:40;7.40;99.90
33368;DHT22;19724;51.114;13.906;2023-02-13T13:32:13;7.50;99.90
33368;DHT22;19724;51.114;13.906;2023-02-13T13:34:40;7.50;99.90
33368;DHT22;19724;51.114;13.906;2023-02-13T13:37:31;7.60;99.90
33368;DHT22;19724;51.114;13.906;2023-02-13T13:40:20;7.60;99.90
33368;DHT22;19724;51.114;13.906;2023-02-13T13:43:14;7.70;99.90
33368;DHT22;19724;51.114;13.906;2023-02-13T13:46:02;7.70;99.90
33368;DHT22;19724;51.114;13.906;2023-02-13T13:51:24;7.80;99.90
33368;DHT22;19724;51.114;13.906;2023-02-13T14:07:44;7.80;99.90
33368;DHT22;19724;51.114;13.906;2023-02-13T14:34:03;7.50;99.90
33368;DHT22;19724;51.114;13.906;2023-02-13T14:36:33;7.50;99.90
33368;DHT22;19724;51.114;13.906;2023-02-13T14:39:03;7.40;99.90
33368;DHT22;19724;51.114;13.906;2023-02-13T14:44:45;7.30;99.90
33368;DHT22;19724;51.114;13.906;2023-02-13T14:47:22;7.30;99.90
33368;DHT22;19724;51.114;13.906;2023-02-13T14:49:50;7.40;99.90
33368;DHT22;19724;51.114;13.906;2023-02-13T14:52:19;7.20;99.90
33368;DHT22;19724;51.114;13.906;2023-02-13T14:55:27;7.20;99.90
33368;DHT22;19724;51.114;13.906;2023-02-13T14:57:43;7.20;99.90
33368;DHT22;19724;51.114;13.906;2023-02-13T15:00:18;7.20;99.90
33368;DHT22;19724;51.114;13.906;2023-02-13T15:02:51;7.10;99.90
33368;DHT22;19724;51.114;13.906;2023-02-13T15:05:18;7.10;99.90
33368;DHT22;19724;51.114;13.906;2023-02-13T15:07:50;7.10;99.90
33368;DHT22;19724;51.114;13.906;2023-02-13T15:10:42;7.10;99.90
33368;DHT22;19724;51.114;13.906;2023-02-13T15:13:19;7.00;99.90
33368;DHT22;19724;51.114;13.906;2023-02-13T15:15:57;6.90;99.90
33368;DHT22;19724;51.114;13.906;2023-02-13T15:18:25;6.90;99.90
33368;DHT22;19724;51.114;13.906;2023-02-13T15:20:54;6.80;99.90
33368;DHT22;19724;51.114;13.906;2023-02-13T15:23:25;6.90;99.90
33368;DHT22;19724;51.114;13.906;2023-02-13T15:25:57;6.80;99.90
33368;DHT22;19724;51.114;13.906;2023-02-13T15:28:24;6.90;99.90
33368;DHT22;19724;51.114;13.906;2023-02-13T15:31:04;6.80;99.90
33368;DHT22;19724;51.114;13.906;2023-02-13T15:33:45;6.80;99.90
33368;DHT22;19724;51.114;13.906;2023-02-13T15:36:19;6.70;99.90
33368;DHT22;19724;51.114;13.906;2023-02-13T15:38:44;6.70;99.90
33368;DHT22;19724;51.114;13.906;2023-02-13T15:41:16;6.70;99.90
33368;DHT22;19724;51.114;13.906;2023-02-13T15:43:47;6.60;99.90
33368;DHT22;19724;51.114;13.906;2023-02-13T15:46:30;6.60;99.90
33368;DHT22;19724;51.114;13.906;2023-02-13T15:49:08;6.60;99.90
33368;DHT22;19724;51.114;13.906;2023-02-13T15:51:36;6.60;99.90
33368;DHT22;19724;51.114;13.906;2023-02-13T15:54:04;6.50;99.90
33368;DHT22;19724;51.114;13.906;2023-02-13T15:56:31;6.60;99.90
33368;DHT22;19724;51.114;13.906;2023-02-13T15:58:58;6.60;99.90
33368;DHT22;19724;51.114;13.906;2023-02-13T16:01:24;6.60;99.90
33368;DHT22;19724;51.114;13.906;2023-02-13T16:03:57;6.50;99.90
33368;DHT22;19724;51.114;13.906;2023-02-13T16:06:24;6.40;99.90
33368;DHT22;19724;51.114;13.906;2023-02-13T16:08:52;6.50;99.90
33368;DHT22;19724;51.114;13.906;2023-02-13T16:14:02;6.40;99.90
33368;DHT22;19724;51.114;13.906;2023-02-13T16:16:33;6.40;99.90
33368;DHT22;19724;51.114;13.906;2023-02-13T16:18:59;6.30;99.90
33368;DHT22;19724;51.114;13.906;2023-02-13T16:21:27;6.20;99.90
33368;DHT22;19724;51.114;13.906;2023-02-13T16:24:03;6.30;99.90
33368;DHT22;19724;51.114;13.906;2023-02-13T16:26:30;6.20;99.90
33368;DHT22;19724;51.114;13.906;2023-02-13T16:29:00;6.30;99.90
33368;DHT22;19724;51.114;13.906;2023-02-13T16:31:25;6.30;99.90
33368;DHT22;19724;51.114;13.906;2023-02-13T16:33:51;6.30;99.90
33368;DHT22;19724;51.114;13.906;2023-02-13T16:36:28;6.30;99.90
33368;DHT22;19724;51.114;13.906;2023-02-13T16:38:54;6.20;99.90
33368;DHT22;19724;51.114;13.906;2023-02-13T16:43:55;6.20;99.90
33368;DHT22;19724;51.114;13.906;2023-02-13T16:46:35;6.20;99.90
33368;DHT22;19724;51.114;13.906;2023-02-13T16:49:13;6.20;99.90
33368;DHT22;19724;51.114;13.906;2023-02-13T16:52:09;6.20;99.90
33368;DHT22;19724;51.114;13.906;2023-02-13T16:54:57;6.20;99.90
33368;DHT22;19724;51.114;13.906;2023-02-13T16:57:26;6.20;99.90
33368;DHT22;19724;51.114;13.906;2023-02-13T17:02:41;6.10;99.90
33368;DHT22;19724;51.114;13.906;2023-02-13T17:07:51;6.10;99.90
33368;DHT22;19724;51.114;13.906;2023-02-13T17:10:24;6.10;99.90
33368;DHT22;19724;51.114;13.906;2023-02-13T17:12:55;6.10;99.90
33368;DHT22;19724;51.114;13.906;2023-02-13T17:15:23;6.20;99.90
33368;DHT22;19724;51.114;13.906;2023-02-13T17:17:49;6.20;99.90
33368;DHT22;19724;51.114;13.906;2023-02-13T17:20:26;6.10;99.90
33368;DHT22;19724;51.114;13.906;2023-02-13T17:22:54;6.10;99.90
33368;DHT22;19724;51.114;13.906;2023-02-13T17:25:30;6.00;99.90
33368;DHT22;19724;51.114;13.906;2023-02-13T17:27:58;6.00;99.90
33368;DHT22;19724;51.114;13.906;2023-02-13T17:30:28;6.00;99.90
33368;DHT22;19724;51.114;13.906;2023-02-13T17:33:03;6.00;99.90
33368;DHT22;19724;51.114;13.906;2023-02-13T17:35:29;6.00;99.90
33368;DHT22;19724;51.114;13.906;2023-02-13T17:37:55;5.90;99.90
33368;DHT22;19724;51.114;13.906;2023-02-13T17:40:22;6.10;99.90
33368;DHT22;19724;51.114;13.906;2023-02-13T17:42:51;6.10;99.90
33368;DHT22;19724;51.114;13.906;2023-02-13T17:45:20;6.00;99.90
33368;DHT22;19724;51.114;13.906;2023-02-13T17:47:46;6.00;99.90
33368;DHT22;19724;51.114;13.906;2023-02-13T17:50:13;5.90;99.90
33368;DHT22;19724;51.114;13.906;2023-02-13T17:52:39;6.00;99.90
33368;DHT22;19724;51.114;13.906;2023-02-13T17:55:23;6.00;99.90
33368;DHT22;19724;51.114;13.906;2023-02-13T17:57:50;6.00;99.90
33368;DHT22;19724;51.114;13.906;2023-02-13T18:00:18;5.90;99.90
33368;DHT22;19724;51.114;13.906;2023-02-13T18:02:48;5.90;99.90
33368;DHT22;19724;51.114;13.906;2023-02-13T18:05:14;6.00;99.90
33368;DHT22;19724;51.114;13.906;2023-02-13T18:07:41;5.90;99.90
33368;DHT22;19724;51.114;13.906;2023-02-13T18:10:11;5.90;99.90
33368;DHT22;19724;51.114;13.906;2023-02-13T18:12:38;5.90;99.90